sensor_id;sensor_type;location;lat;lon;timestamp;temperature;humidity
16174;DHT22;14031;50.158;8.626;2023-04-03T00:00:42;7.30;99.90
16174;DHT22;14031;50.158;8.626;2023-04-03T00:03:09;7.20;99.90
16174;DHT22;14031;50.158;8.626;2023-04-03T00:05:36;7.50;99.90
16174;DHT22;14031;50.158;8.626;2023-04-03T00:08:04;7.30;99.90
16174;DHT22;14031;50.158;8.626;2023-04-03T00:10:33;7.40;99.90
16174;DHT22;14031;50.158;8.626;2023-04-03T00:13:00;7.30;99.90
16174;DHT22;14031;50.158;8.626;2023-04-03T00:15:27;7.40;99.90
16174;DHT22;14031;50.158;8.626;2023-04-03T00:17:54;7.40;99.90
16174;DHT22;14031;50.158;8.626;2023-04-03T00:20:21;7.30;99.90
16174;DHT22;14031;50.158;8.626;2023-04-03T00:22:47;7.30;99.90
16174;DHT22;14031;50.158;8.626;2023-04-03T00:25:16;7.30;99.90
16174;DHT22;14031;50.158;8.626;2023-04-03T00:27:42;7.50;99.90
16174;DHT22;14031;50.158;8.626;2023-04-03T00:30:12;7.40;99.90
16174;DHT22;14031;50.158;8.626;2023-04-03T00:32:40;7.40;99.90
16174;DHT22;14031;50.158;8.626;2023-04-03T00:35:07;7.60;99.90
16174;DHT22;14031;50.158;8.626;2023-04-03T00:37:34;7.50;99.90
16174;DHT22;14031;50.158;8.626;2023-04-03T00:40:01;7.50;99.90
16174;DHT22;14031;50.158;8.626;2023-04-03T00:42:29;7.40;99.90
16174;DHT22;14031;50.158;8.626;2023-04-03T00:45:22;7.60;99.90
16174;DHT22;14031;50.158;8.626;2023-04-03T00:47:49;7.60;99.90
16174;DHT22;14031;50.158;8.626;2023-04-03T00:50:17;7.60;99.90
16174;DHT22;14031;50.158;8.626;2023-04-03T00:52:44;7.60;99.90
16174;DHT22;14031;50.158;8.626;2023-04-03T00:55:15;7.60;99.90
16174;DHT22;14031;50.158;8.626;2023-04-03T00:57:45;7.60;99.90
16174;DHT22;14031;50.158;8.626;2023-04-03T01:00:14;7.70;99.90
16174;DHT22;14031;50.158;8.626;2023-04-03T01:02:42;7.50;99.90
16174;DHT22;14031;50.158;8.626;2023-04-03T01:05:09;7.50;99.90
16174;DHT22;14031;50.158;8.626;2023-04-03T01:07:37;7.50;99.90
16174;DHT22;14031;50.158;8.626;2023-04-03T01:10:07;7.50;99.90
16174;DHT22;14031;50.158;8.626;2023-04-03T01:12:36;7.50;99.90
16174;DHT22;14031;50.158;8.626;2023-04-03T01:15:07;7.40;99.90
16174;DHT22;14031;50.158;8.626;2023-04-03T01:17:36;7.50;99.90
16174;DHT22;14031;50.158;8.626;2023-04-03T01:20:36;7.50;99.90
16174;DHT22;14031;50.158;8.626;2023-04-03T01:23:22;7.50;99.90
16174;DHT22;14031;50.158;8.626;2023-04-03T01:25:52;7.40;99.90
16174;DHT22;14031;50.158;8.626;2023-04-03T01:28:22;7.40;99.90
16174;DHT22;14031;50.158;8.626;2023-04-03T01:30:53;7.40;99.90
16174;DHT22;14031;50.158;8.626;2023-04-03T01:33:24;7.40;99.90
16174;DHT22;14031;50.158;8.626;2023-04-03T01:35:51;7.30;99.90
16174;DHT22;14031;50.158;8.626;2023-04-03T01:38:18;7.40;99.90
16174;DHT22;14031;50.158;8.626;2023-04-03T01:40:44;7.60;99.90
16174;DHT22;14031;50.158;8.626;2023-04-03T01:43:11;7.40;99.90
16174;DHT22;14031;50.158;8.626;2023-04-03T01:45:38;7.40;99.90
16174;DHT22;14031;50.158;8.626;2023-04-03T01:48:05;7.30;99.90
16174;DHT22;14031;50.158;8.626;2023-04-03T01:50:33;7.30;99.90
16174;DHT22;14031;50.158;8.626;2023-04-03T01:53:03;7.30;99.90
16174;DHT22;14031;50.158;8.626;2023-04-03T01:55:30;7.30;99.90
16174;DHT22;14031;50.158;8.626;2023-04-03T01:57:57;7.20;99.90
16174;DHT22;14031;50.158;8.626;2023-04-03T02:00:24;7.30;99.90
16174;DHT22;14031;50.158;8.626;2023-04-03T02:02:52;7.30;99.90
16174;DHT22;14031;50.158;8.626;2023-04-03T02:05:19;7.20;99.90
16174;DHT22;14031;50.158;8.626;2023-04-03T02:07:47;7.20;99.90
16174;DHT22;14031;50.158;8.626;2023-04-03T02:10:14;7.10;99.90
16174;DHT22;14031;50.158;8.626;2023-04-03T02:12:41;7.20;99.90
16174;DHT22;14031;50.158;8.626;2023-04-03T02:15:08;7.20;99.90
16174;DHT22;14031;50.158;8.626;2023-04-03T02:17:36;7.30;99.90
16174;DHT22;14031;50.158;8.626;2023-04-03T02:20:03;7.20;99.90
16174;DHT22;14031;50.158;8.626;2023-04-03T02:22:30;7.20;99.90
16174;DHT22;14031;50.158;8.626;2023-04-03T02:24:58;7.20;99.90
16174;DHT22;14031;50.158;8.626;2023-04-03T02:27:25;7.70;99.90
16174;DHT22;14031;50.158;8.626;2023-04-03T02:29:51;7.10;99.90
16174;DHT22;14031;50.158;8.626;2023-04-03T02:32:18;7.20;99.90
16174;DHT22;14031;50.158;8.626;2023-04-03T02:34:45;7.10;99.90
16174;DHT22;14031;50.158;8.626;2023-04-03T02:37:12;7.10;99.90
16174;DHT22;14031;50.158;8.626;2023-04-03T02:39:38;7.00;99.90
16174;DHT22;14031;50.158;8.626;2023-04-03T02:42:07;7.10;99.90
16174;DHT22;14031;50.158;8.626;2023-04-03T02:44:33;7.00;99.90
16174;DHT22;14031;50.158;8.626;2023-04-03T02:47:01;7.00;99.90
16174;DHT22;14031;50.158;8.626;2023-04-03T02:49:28;7.00;99.90
16174;DHT22;14031;50.158;8.626;2023-04-03T02:51:55;7.00;99.90
16174;DHT22;14031;50.158;8.626;2023-04-03T02:54:21;7.00;99.90
16174;DHT22;14031;50.158;8.626;2023-04-03T02:56:49;7.10;99.90
16174;DHT22;14031;50.158;8.626;2023-04-03T02:59:18;7.10;99.90
16174;DHT22;14031;50.158;8.626;2023-04-03T03:01:45;7.00;99.90
16174;DHT22;14031;50.158;8.626;2023-04-03T03:04:12;7.00;99.90
16174;DHT22;14031;50.158;8.626;2023-04-03T03:06:39;7.00;99.90
16174;DHT22;14031;50.158;8.626;2023-04-03T03:09:06;7.00;99.90
16174;DHT22;14031;50.158;8.626;2023-04-03T03:11:33;7.00;99.90
16174;DHT22;14031;50.158;8.626;2023-04-03T03:14:00;6.80;99.90
16174;DHT22;14031;50.158;8.626;2023-04-03T03:16:29;6.80;99.90
16174;DHT22;14031;50.158;8.626;2023-04-03T03:18:55;6.70;99.90
16174;DHT22;14031;50.158;8.626;2023-04-03T03:21:22;6.70;99.90
16174;DHT22;14031;50.158;8.626;2023-04-03T03:23:49;6.60;99.90
16174;DHT22;14031;50.158;8.626;2023-04-03T03:26:16;6.60;99.90
16174;DHT22;14031;50.158;8.626;2023-04-03T03:28:42;6.60;99.90
16174;DHT22;14031;50.158;8.626;2023-04-03T03:31:10;6.50;99.90
16174;DHT22;14031;50.158;8.626;2023-04-03T03:33:39;6.60;99.90
16174;DHT22;14031;50.158;8.626;2023-04-03T03:36:06;6.70;99.90
16174;DHT22;14031;50.158;8.626;2023-04-03T03:38:33;6.50;99.90
16174;DHT22;14031;50.158;8.626;2023-04-03T03:40:59;6.40;99.90
16174;DHT22;14031;50.158;8.626;2023-04-03T03:43:27;6.50;99.90
16174;DHT22;14031;50.158;8.626;2023-04-03T03:45:54;6.40;99.90
16174;DHT22;14031;50.158;8.626;2023-04-03T03:48:22;6.30;99.90
16174;DHT22;14031;50.158;8.626;2023-04-03T03:50:50;6.30;99.90
16174;DHT22;14031;50.158;8.626;2023-04-03T03:53:17;6.30;99.90
16174;DHT22;14031;50.158;8.626;2023-04-03T03:55:44;6.20;99.90
16174;DHT22;14031;50.158;8.626;2023-04-03T03:58:11;6.10;99.90
16174;DHT22;14031;50.158;8.626;2023-04-03T04:00:38;6.10;99.90
16174;DHT22;14031;50.158;8.626;2023-04-03T04:03:05;6.10;99.90
16174;DHT22;14031;50.158;8.626;2023-04-03T04:05:31;6.10;99.90
16174;DHT22;14031;50.158;8.626;2023-04-03T04:08:00;6.20;99.90
16174;DHT22;14031;50.158;8.626;2023-04-03T04:10:26;6.20;99.90
16174;DHT22;14031;50.158;8.626;2023-04-03T04:12:53;6.10;99.90
16174;DHT22;14031;50.158;8.626;2023-04-03T04:15:20;6.20;99.90
16174;DHT22;14031;50.158;8.626;2023-04-03T04:17:48;6.00;99.90
16174;DHT22;14031;50.158;8.626;2023-04-03T04:20:15;6.10;99.90
16174;DHT22;14031;50.158;8.626;2023-04-03T04:22:42;5.90;99.90
16174;DHT22;14031;50.158;8.626;2023-04-03T04:25:10;5.90;99.90
16174;DHT22;14031;50.158;8.626;2023-04-03T04:27:37;6.00;99.90
16174;DHT22;14031;50.158;8.626;2023-04-03T04:30:05;5.80;99.90
16174;DHT22;14031;50.158;8.626;2023-04-03T04:32:32;5.80;99.90
16174;DHT22;14031;50.158;8.626;2023-04-03T04:34:59;5.80;99.90
16174;DHT22;14031;50.158;8.626;2023-04-03T04:37:25;5.80;99.90
16174;DHT22;14031;50.158;8.626;2023-04-03T04:39:52;5.80;99.90
16174;DHT22;14031;50.158;8.626;2023-04-03T04:42:20;5.70;99.90
16174;DHT22;14031;50.158;8.626;2023-04-03T04:44:47;5.70;99.90
16174;DHT22;14031;50.158;8.626;2023-04-03T04:47:14;5.80;99.90
16174;DHT22;14031;50.158;8.626;2023-04-03T04:49:41;5.80;99.90
16174;DHT22;14031;50.158;8.626;2023-04-03T04:52:07;5.80;99.90
16174;DHT22;14031;50.158;8.626;2023-04-03T04:54:34;5.80;99.90
16174;DHT22;14031;50.158;8.626;2023-04-03T04:57:01;5.80;99.90
16174;DHT22;14031;50.158;8.626;2023-04-03T04:59:29;5.70;99.90
16174;DHT22;14031;50.158;8.626;2023-04-03T05:01:56;5.80;99.90
16174;DHT22;14031;50.158;8.626;2023-04-03T05:04:23;5.70;99.90
16174;DHT22;14031;50.158;8.626;2023-04-03T05:06:50;5.60;99.90
16174;DHT22;14031;50.158;8.626;2023-04-03T05:09:16;5.60;99.90
16174;DHT22;14031;50.158;8.626;2023-04-03T05:11:43;5.60;99.90
16174;DHT22;14031;50.158;8.626;2023-04-03T05:14:10;5.60;99.90
16174;DHT22;14031;50.158;8.626;2023-04-03T05:16:38;5.60;99.90
16174;DHT22;14031;50.158;8.626;2023-04-03T05:19:05;5.60;99.90
16174;DHT22;14031;50.158;8.626;2023-04-03T05:21:32;5.60;99.90
16174;DHT22;14031;50.158;8.626;2023-04-03T05:23:59;5.50;99.90
16174;DHT22;14031;50.158;8.626;2023-04-03T05:26:28;5.50;99.90
16174;DHT22;14031;50.158;8.626;2023-04-03T05:28:54;5.60;99.90
16174;DHT22;14031;50.158;8.626;2023-04-03T05:31:21;5.50;99.90
16174;DHT22;14031;50.158;8.626;2023-04-03T05:33:50;5.60;99.90
16174;DHT22;14031;50.158;8.626;2023-04-03T05:36:17;5.60;99.90
16174;DHT22;14031;50.158;8.626;2023-04-03T05:38:43;5.60;99.90
16174;DHT22;14031;50.158;8.626;2023-04-03T05:41:10;5.70;99.90
16174;DHT22;14031;50.158;8.626;2023-04-03T05:43:37;5.50;99.90
16174;DHT22;14031;50.158;8.626;2023-04-03T05:46:08;5.50;99.90
16174;DHT22;14031;50.158;8.626;2023-04-03T05:48:35;5.60;99.90
16174;DHT22;14031;50.158;8.626;2023-04-03T05:51:04;5.70;99.90
16174;DHT22;14031;50.158;8.626;2023-04-03T05:53:34;5.60;99.90
16174;DHT22;14031;50.158;8.626;2023-04-03T05:56:02;5.60;99.90
16174;DHT22;14031;50.158;8.626;2023-04-03T05:58:29;5.60;99.90
16174;DHT22;14031;50.158;8.626;2023-04-03T06:00:56;5.70;99.90
16174;DHT22;14031;50.158;8.626;2023-04-03T06:03:22;5.80;99.90
16174;DHT22;14031;50.158;8.626;2023-04-03T06:05:49;5.60;99.90
16174;DHT22;14031;50.158;8.626;2023-04-03T06:08:17;5.60;99.90
16174;DHT22;14031;50.158;8.626;2023-04-03T06:10:44;5.50;99.90
16174;DHT22;14031;50.158;8.626;2023-04-03T06:13:12;5.60;99.90
16174;DHT22;14031;50.158;8.626;2023-04-03T06:15:39;5.60;99.90
16174;DHT22;14031;50.158;8.626;2023-04-03T06:18:06;5.50;99.90
16174;DHT22;14031;50.158;8.626;2023-04-03T06:20:33;5.60;99.90
16174;DHT22;14031;50.158;8.626;2023-04-03T06:23:01;5.50;99.90
16174;DHT22;14031;50.158;8.626;2023-04-03T06:25:29;5.50;99.90
16174;DHT22;14031;50.158;8.626;2023-04-03T06:27:57;5.70;99.90
16174;DHT22;14031;50.158;8.626;2023-04-03T06:30:23;5.50;99.90
16174;DHT22;14031;50.158;8.626;2023-04-03T06:32:51;5.60;99.90
16174;DHT22;14031;50.158;8.626;2023-04-03T06:35:17;5.50;99.90
16174;DHT22;14031;50.158;8.626;2023-04-03T06:37:44;5.60;99.90
16174;DHT22;14031;50.158;8.626;2023-04-03T06:40:17;5.50;99.90
16174;DHT22;14031;50.158;8.626;2023-04-03T06:42:46;5.50;99.90
16174;DHT22;14031;50.158;8.626;2023-04-03T06:45:13;5.40;99.90
16174;DHT22;14031;50.158;8.626;2023-04-03T06:47:40;5.40;99.90
16174;DHT22;14031;50.158;8.626;2023-04-03T06:50:07;5.30;99.90
16174;DHT22;14031;50.158;8.626;2023-04-03T06:52:37;5.50;99.90
16174;DHT22;14031;50.158;8.626;2023-04-03T06:55:05;5.50;99.90
16174;DHT22;14031;50.158;8.626;2023-04-03T06:57:32;5.60;99.90
16174;DHT22;14031;50.158;8.626;2023-04-03T07:00:00;5.60;99.90
16174;DHT22;14031;50.158;8.626;2023-04-03T07:02:28;5.70;99.90
16174;DHT22;14031;50.158;8.626;2023-04-03T07:04:55;5.70;99.90
16174;DHT22;14031;50.158;8.626;2023-04-03T07:07:22;5.70;99.90
16174;DHT22;14031;50.158;8.626;2023-04-03T07:09:49;5.70;99.90
16174;DHT22;14031;50.158;8.626;2023-04-03T07:12:16;5.80;99.90
16174;DHT22;14031;50.158;8.626;2023-04-03T07:14:43;5.80;99.90
16174;DHT22;14031;50.158;8.626;2023-04-03T07:17:11;5.80;99.90
16174;DHT22;14031;50.158;8.626;2023-04-03T07:19:38;5.80;99.90
16174;DHT22;14031;50.158;8.626;2023-04-03T07:22:05;5.70;99.90
16174;DHT22;14031;50.158;8.626;2023-04-03T07:24:33;5.70;99.90
16174;DHT22;14031;50.158;8.626;2023-04-03T07:27:00;5.80;99.90
16174;DHT22;14031;50.158;8.626;2023-04-03T07:29:27;5.90;99.90
16174;DHT22;14031;50.158;8.626;2023-04-03T07:31:55;6.10;99.90
16174;DHT22;14031;50.158;8.626;2023-04-03T07:34:23;6.00;99.90
16174;DHT22;14031;50.158;8.626;2023-04-03T07:36:50;6.10;99.90
16174;DHT22;14031;50.158;8.626;2023-04-03T07:39:17;6.10;99.90
16174;DHT22;14031;50.158;8.626;2023-04-03T07:41:44;6.10;99.90
16174;DHT22;14031;50.158;8.626;2023-04-03T07:44:11;6.10;99.90
16174;DHT22;14031;50.158;8.626;2023-04-03T07:46:38;6.30;99.90
16174;DHT22;14031;50.158;8.626;2023-04-03T07:49:06;6.30;99.90
16174;DHT22;14031;50.158;8.626;2023-04-03T07:51:34;6.30;99.90
16174;DHT22;14031;50.158;8.626;2023-04-03T07:54:01;6.30;99.90
16174;DHT22;14031;50.158;8.626;2023-04-03T07:56:28;6.30;99.90
16174;DHT22;14031;50.158;8.626;2023-04-03T07:58:54;6.30;99.90
16174;DHT22;14031;50.158;8.626;2023-04-03T08:01:21;6.40;99.90
16174;DHT22;14031;50.158;8.626;2023-04-03T08:03:48;6.50;99.90
16174;DHT22;14031;50.158;8.626;2023-04-03T08:06:16;6.60;99.90
16174;DHT22;14031;50.158;8.626;2023-04-03T08:08:44;6.60;99.90
16174;DHT22;14031;50.158;8.626;2023-04-03T08:11:11;6.70;99.90
16174;DHT22;14031;50.158;8.626;2023-04-03T08:13:38;6.80;99.90
16174;DHT22;14031;50.158;8.626;2023-04-03T08:16:08;6.70;99.90
16174;DHT22;14031;50.158;8.626;2023-04-03T08:18:35;6.90;99.90
16174;DHT22;14031;50.158;8.626;2023-04-03T08:21:05;6.90;99.90
16174;DHT22;14031;50.158;8.626;2023-04-03T08:23:32;7.00;99.90
16174;DHT22;14031;50.158;8.626;2023-04-03T08:26:05;7.10;99.90
16174;DHT22;14031;50.158;8.626;2023-04-03T08:28:32;7.10;99.90
16174;DHT22;14031;50.158;8.626;2023-04-03T08:31:03;7.20;99.90
16174;DHT22;14031;50.158;8.626;2023-04-03T08:33:31;7.30;99.90
16174;DHT22;14031;50.158;8.626;2023-04-03T08:35:58;7.20;99.90
16174;DHT22;14031;50.158;8.626;2023-04-03T08:38:25;7.20;99.90
16174;DHT22;14031;50.158;8.626;2023-04-03T08:41:04;7.20;99.90
16174;DHT22;14031;50.158;8.626;2023-04-03T08:43:36;7.40;99.90
16174;DHT22;14031;50.158;8.626;2023-04-03T08:46:11;7.20;99.90
16174;DHT22;14031;50.158;8.626;2023-04-03T08:48:41;7.30;99.90
16174;DHT22;14031;50.158;8.626;2023-04-03T08:51:13;7.20;99.90
16174;DHT22;14031;50.158;8.626;2023-04-03T08:53:44;7.10;99.90
16174;DHT22;14031;50.158;8.626;2023-04-03T08:56:14;7.10;99.90
16174;DHT22;14031;50.158;8.626;2023-04-03T08:58:47;7.00;99.90
16174;DHT22;14031;50.158;8.626;2023-04-03T09:01:19;7.00;99.90
16174;DHT22;14031;50.158;8.626;2023-04-03T09:03:46;7.10;99.90
16174;DHT22;14031;50.158;8.626;2023-04-03T09:06:15;7.20;99.90
16174;DHT22;14031;50.158;8.626;2023-04-03T09:08:45;7.30;99.90
16174;DHT22;14031;50.158;8.626;2023-04-03T09:11:20;7.30;99.90
16174;DHT22;14031;50.158;8.626;2023-04-03T09:13:52;7.40;99.90
16174;DHT22;14031;50.158;8.626;2023-04-03T09:16:27;7.50;99.90
16174;DHT22;14031;50.158;8.626;2023-04-03T09:18:59;7.50;99.90
16174;DHT22;14031;50.158;8.626;2023-04-03T09:21:33;7.60;99.90
16174;DHT22;14031;50.158;8.626;2023-04-03T09:24:01;7.80;99.90
16174;DHT22;14031;50.158;8.626;2023-04-03T09:26:35;7.80;99.90
16174;DHT22;14031;50.158;8.626;2023-04-03T09:29:06;7.90;99.90
16174;DHT22;14031;50.158;8.626;2023-04-03T09:31:37;7.80;99.90
16174;DHT22;14031;50.158;8.626;2023-04-03T09:34:10;7.90;99.90
16174;DHT22;14031;50.158;8.626;2023-04-03T09:36:41;7.90;99.90
16174;DHT22;14031;50.158;8.626;2023-04-03T09:39:12;7.90;99.90
16174;DHT22;14031;50.158;8.626;2023-04-03T09:41:41;7.90;99.90
16174;DHT22;14031;50.158;8.626;2023-04-03T09:44:21;7.90;99.90
16174;DHT22;14031;50.158;8.626;2023-04-03T09:46:49;8.00;99.90
16174;DHT22;14031;50.158;8.626;2023-04-03T09:49:17;8.10;99.90
16174;DHT22;14031;50.158;8.626;2023-04-03T09:51:45;8.00;99.90
16174;DHT22;14031;50.158;8.626;2023-04-03T09:54:39;8.00;99.90
16174;DHT22;14031;50.158;8.626;2023-04-03T09:57:10;8.00;99.90
16174;DHT22;14031;50.158;8.626;2023-04-03T09:59:46;8.10;99.90
16174;DHT22;14031;50.158;8.626;2023-04-03T10:02:35;8.20;99.90
16174;DHT22;14031;50.158;8.626;2023-04-03T10:05:02;8.20;99.90
16174;DHT22;14031;50.158;8.626;2023-04-03T10:07:32;8.20;99.90
16174;DHT22;14031;50.158;8.626;2023-04-03T10:10:01;8.30;99.90
16174;DHT22;14031;50.158;8.626;2023-04-03T10:12:30;8.40;99.90
16174;DHT22;14031;50.158;8.626;2023-04-03T10:14:59;8.50;99.90
16174;DHT22;14031;50.158;8.626;2023-04-03T10:17:46;8.70;99.90
16174;DHT22;14031;50.158;8.626;2023-04-03T10:20:27;8.90;99.90
16174;DHT22;14031;50.158;8.626;2023-04-03T10:23:05;9.30;99.90
16174;DHT22;14031;50.158;8.626;2023-04-03T10:25:41;9.40;99.90
16174;DHT22;14031;50.158;8.626;2023-04-03T10:28:16;9.60;99.90
16174;DHT22;14031;50.158;8.626;2023-04-03T10:30:51;9.70;99.90
16174;DHT22;14031;50.158;8.626;2023-04-03T10:33:29;9.70;99.90
16174;DHT22;14031;50.158;8.626;2023-04-03T10:36:07;9.80;99.90
16174;DHT22;14031;50.158;8.626;2023-04-03T10:38:43;10.00;99.90
16174;DHT22;14031;50.158;8.626;2023-04-03T10:41:16;10.00;99.90
16174;DHT22;14031;50.158;8.626;2023-04-03T10:43:50;10.10;99.90
16174;DHT22;14031;50.158;8.626;2023-04-03T10:46:25;10.20;99.90
16174;DHT22;14031;50.158;8.626;2023-04-03T10:49:05;10.30;99.90
16174;DHT22;14031;50.158;8.626;2023-04-03T10:51:40;10.20;99.90
16174;DHT22;14031;50.158;8.626;2023-04-03T10:54:13;10.20;99.90
16174;DHT22;14031;50.158;8.626;2023-04-03T10:56:48;10.20;99.90
16174;DHT22;14031;50.158;8.626;2023-04-03T10:59:26;10.20;99.90
16174;DHT22;14031;50.158;8.626;2023-04-03T11:01:56;10.30;99.90
16174;DHT22;14031;50.158;8.626;2023-04-03T11:04:28;10.30;99.90
16174;DHT22;14031;50.158;8.626;2023-04-03T11:07:01;10.40;99.90
16174;DHT22;14031;50.158;8.626;2023-04-03T11:09:30;10.40;99.90
16174;DHT22;14031;50.158;8.626;2023-04-03T11:12:03;10.50;99.90
16174;DHT22;14031;50.158;8.626;2023-04-03T11:14:33;10.50;99.90
16174;DHT22;14031;50.158;8.626;2023-04-03T11:17:21;10.60;99.90
16174;DHT22;14031;50.158;8.626;2023-04-03T11:19:57;10.60;99.90
16174;DHT22;14031;50.158;8.626;2023-04-03T11:22:30;10.70;99.90
16174;DHT22;14031;50.158;8.626;2023-04-03T11:25:04;10.80;99.90
16174;DHT22;14031;50.158;8.626;2023-04-03T11:27:38;10.80;99.90
16174;DHT22;14031;50.158;8.626;2023-04-03T11:30:16;10.70;99.90
16174;DHT22;14031;50.158;8.626;2023-04-03T11:35:34;10.70;99.90
16174;DHT22;14031;50.158;8.626;2023-04-03T11:38:02;10.80;99.90
16174;DHT22;14031;50.158;8.626;2023-04-03T11:40:33;10.90;99.90
16174;DHT22;14031;50.158;8.626;2023-04-03T11:43:07;10.90;99.90
16174;DHT22;14031;50.158;8.626;2023-04-03T11:45:56;10.80;99.90
16174;DHT22;14031;50.158;8.626;2023-04-03T11:48:52;10.80;99.90
16174;DHT22;14031;50.158;8.626;2023-04-03T11:51:42;10.70;99.90
16174;DHT22;14031;50.158;8.626;2023-04-03T11:54:35;10.90;99.90
16174;DHT22;14031;50.158;8.626;2023-04-03T11:57:28;11.10;99.90
16174;DHT22;14031;50.158;8.626;2023-04-03T12:00:48;11.10;99.90
16174;DHT22;14031;50.158;8.626;2023-04-03T12:10:18;11.60;99.90
16174;DHT22;14031;50.158;8.626;2023-04-03T12:12:57;11.80;99.90
16174;DHT22;14031;50.158;8.626;2023-04-03T12:15:50;11.80;99.90
16174;DHT22;14031;50.158;8.626;2023-04-03T12:18:38;11.60;99.90
16174;DHT22;14031;50.158;8.626;2023-04-03T12:21:06;11.80;99.90
16174;DHT22;14031;50.158;8.626;2023-04-03T12:23:34;11.80;99.90
16174;DHT22;14031;50.158;8.626;2023-04-03T12:26:18;11.70;99.90
16174;DHT22;14031;50.158;8.626;2023-04-03T12:28:48;11.60;99.90
16174;DHT22;14031;50.158;8.626;2023-04-03T12:31:16;11.50;99.90
16174;DHT22;14031;50.158;8.626;2023-04-03T12:34:12;11.50;99.90
16174;DHT22;14031;50.158;8.626;2023-04-03T12:36:49;11.40;99.90
16174;DHT22;14031;50.158;8.626;2023-04-03T12:39:36;11.40;99.90
16174;DHT22;14031;50.158;8.626;2023-04-03T12:42:17;11.60;99.90
16174;DHT22;14031;50.158;8.626;2023-04-03T12:44:56;11.70;99.90
16174;DHT22;14031;50.158;8.626;2023-04-03T12:47:29;12.00;99.90
16174;DHT22;14031;50.158;8.626;2023-04-03T12:49:59;12.30;99.90
16174;DHT22;14031;50.158;8.626;2023-04-03T12:52:35;12.40;99.90
16174;DHT22;14031;50.158;8.626;2023-04-03T12:55:07;12.50;99.90
16174;DHT22;14031;50.158;8.626;2023-04-03T12:57:37;12.70;99.90
16174;DHT22;14031;50.158;8.626;2023-04-03T13:00:25;12.70;99.90
16174;DHT22;14031;50.158;8.626;2023-04-03T13:02:53;12.70;99.90
16174;DHT22;14031;50.158;8.626;2023-04-03T13:05:21;12.70;99.90
16174;DHT22;14031;50.158;8.626;2023-04-03T13:07:49;12.80;99.90
16174;DHT22;14031;50.158;8.626;2023-04-03T13:10:19;12.80;99.90
16174;DHT22;14031;50.158;8.626;2023-04-03T13:12:50;12.90;99.90
16174;DHT22;14031;50.158;8.626;2023-04-03T13:15:19;13.00;99.90
16174;DHT22;14031;50.158;8.626;2023-04-03T13:17:48;13.00;99.90
16174;DHT22;14031;50.158;8.626;2023-04-03T13:20:21;13.10;99.90
16174;DHT22;14031;50.158;8.626;2023-04-03T13:22:53;13.00;99.80
16174;DHT22;14031;50.158;8.626;2023-04-03T13:25:25;13.00;99.90
16174;DHT22;14031;50.158;8.626;2023-04-03T13:27:55;13.20;99.90
16174;DHT22;14031;50.158;8.626;2023-04-03T13:30:27;13.40;99.90
16174;DHT22;14031;50.158;8.626;2023-04-03T13:32:56;13.60;99.60
16174;DHT22;14031;50.158;8.626;2023-04-03T13:35:42;13.70;99.90
16174;DHT22;14031;50.158;8.626;2023-04-03T13:38:25;14.00;99.80
16174;DHT22;14031;50.158;8.626;2023-04-03T13:40:54;14.00;99.50
16174;DHT22;14031;50.158;8.626;2023-04-03T13:43:25;14.00;98.10
16174;DHT22;14031;50.158;8.626;2023-04-03T13:46:05;14.00;97.80
16174;DHT22;14031;50.158;8.626;2023-04-03T13:48:39;13.80;96.30
16174;DHT22;14031;50.158;8.626;2023-04-03T13:51:17;13.70;97.70
16174;DHT22;14031;50.158;8.626;2023-04-03T13:53:47;13.90;97.20
16174;DHT22;14031;50.158;8.626;2023-04-03T13:56:21;14.00;98.10
16174;DHT22;14031;50.158;8.626;2023-04-03T13:58:59;14.30;98.10
16174;DHT22;14031;50.158;8.626;2023-04-03T14:01:41;14.40;95.50
16174;DHT22;14031;50.158;8.626;2023-04-03T14:04:15;14.50;95.80
16174;DHT22;14031;50.158;8.626;2023-04-03T14:06:44;14.70;95.50
16174;DHT22;14031;50.158;8.626;2023-04-03T14:09:11;15.00;93.80
16174;DHT22;14031;50.158;8.626;2023-04-03T14:11:39;15.30;94.00
16174;DHT22;14031;50.158;8.626;2023-04-03T14:14:12;15.40;92.30
16174;DHT22;14031;50.158;8.626;2023-04-03T14:16:42;15.60;92.90
16174;DHT22;14031;50.158;8.626;2023-04-03T14:19:18;15.70;92.70
16174;DHT22;14031;50.158;8.626;2023-04-03T14:21:45;15.90;91.80
16174;DHT22;14031;50.158;8.626;2023-04-03T14:24:12;16.20;90.50
16174;DHT22;14031;50.158;8.626;2023-04-03T14:26:38;16.30;90.30
16174;DHT22;14031;50.158;8.626;2023-04-03T14:29:09;16.40;90.40
16174;DHT22;14031;50.158;8.626;2023-04-03T14:31:36;16.80;90.60
16174;DHT22;14031;50.158;8.626;2023-04-03T14:34:03;17.00;90.10
16174;DHT22;14031;50.158;8.626;2023-04-03T14:36:30;17.00;87.90
16174;DHT22;14031;50.158;8.626;2023-04-03T14:39:03;17.00;84.10
16174;DHT22;14031;50.158;8.626;2023-04-03T14:41:30;17.10;84.20
16174;DHT22;14031;50.158;8.626;2023-04-03T14:43:56;17.00;82.60
16174;DHT22;14031;50.158;8.626;2023-04-03T14:46:29;17.20;84.20
16174;DHT22;14031;50.158;8.626;2023-04-03T14:48:56;17.40;81.60
16174;DHT22;14031;50.158;8.626;2023-04-03T14:51:23;17.60;83.90
16174;DHT22;14031;50.158;8.626;2023-04-03T14:53:51;17.70;82.60
16174;DHT22;14031;50.158;8.626;2023-04-03T14:56:21;18.00;81.00
16174;DHT22;14031;50.158;8.626;2023-04-03T14:58:56;17.70;79.60
16174;DHT22;14031;50.158;8.626;2023-04-03T15:01:27;17.30;81.30
16174;DHT22;14031;50.158;8.626;2023-04-03T15:03:56;17.50;81.80
16174;DHT22;14031;50.158;8.626;2023-04-03T15:06:23;17.60;79.70
16174;DHT22;14031;50.158;8.626;2023-04-03T15:08:50;17.70;79.50
16174;DHT22;14031;50.158;8.626;2023-04-03T15:11:17;17.90;78.70
16174;DHT22;14031;50.158;8.626;2023-04-03T15:13:44;18.30;80.90
16174;DHT22;14031;50.158;8.626;2023-04-03T15:16:15;18.50;78.30
16174;DHT22;14031;50.158;8.626;2023-04-03T15:18:44;18.60;76.50
16174;DHT22;14031;50.158;8.626;2023-04-03T15:21:11;18.90;77.10
16174;DHT22;14031;50.158;8.626;2023-04-03T15:23:38;19.10;76.30
16174;DHT22;14031;50.158;8.626;2023-04-03T15:26:05;19.10;73.10
16174;DHT22;14031;50.158;8.626;2023-04-03T15:28:35;18.60;72.20
16174;DHT22;14031;50.158;8.626;2023-04-03T15:31:02;18.20;73.60
16174;DHT22;14031;50.158;8.626;2023-04-03T15:33:29;18.10;74.70
16174;DHT22;14031;50.158;8.626;2023-04-03T15:35:58;18.00;73.20
16174;DHT22;14031;50.158;8.626;2023-04-03T15:38:25;18.30;74.60
16174;DHT22;14031;50.158;8.626;2023-04-03T15:40:52;18.40;73.50
16174;DHT22;14031;50.158;8.626;2023-04-03T15:43:21;18.40;72.30
16174;DHT22;14031;50.158;8.626;2023-04-03T15:45:56;18.40;72.70
16174;DHT22;14031;50.158;8.626;2023-04-03T15:48:23;18.50;70.30
16174;DHT22;14031;50.158;8.626;2023-04-03T15:50:50;18.50;71.20
16174;DHT22;14031;50.158;8.626;2023-04-03T15:53:18;18.60;70.70
16174;DHT22;14031;50.158;8.626;2023-04-03T15:55:45;18.60;72.80
16174;DHT22;14031;50.158;8.626;2023-04-03T15:58:12;18.50;72.30
16174;DHT22;14031;50.158;8.626;2023-04-03T16:00:39;18.30;72.70
16174;DHT22;14031;50.158;8.626;2023-04-03T16:03:09;18.30;71.50
16174;DHT22;14031;50.158;8.626;2023-04-03T16:05:37;18.30;68.70
16174;DHT22;14031;50.158;8.626;2023-04-03T16:08:05;18.00;69.40